This is the latest recevied weather packets stored in our database for station/object ES2ADF-5. If no packets are shown the sender has not sent any weather packets the latest 10 day(s).
| Time | Temp. | Humidity | Pressure | Rain* | Wind** | Luminosity | Snow |
|---|---|---|---|---|---|---|---|
| 1787746031 | 19.44° C | 70% | 1026.8 hPa | 0 mm | - | - | - |
| 1787745731 | 19.44° C | 70% | 1026.8 hPa | 0 mm | - | - | - |
| 1787745430 | 19.44° C | 69% | 1026.8 hPa | 0 mm | - | - | - |
| 1787745130 | 20° C | 69% | 1026.6 hPa | 0 mm | - | - | - |
| 1787744830 | 20° C | 69% | 1026.7 hPa | 0 mm | - | - | - |
| 1787744530 | 20° C | 68% | 1026.8 hPa | 0 mm | - | - | - |
| 1787744229 | 20.56° C | 67% | 1026.8 hPa | 0 mm | - | - | - |
| 1787743929 | 20.56° C | 66% | 1026.8 hPa | 0 mm | - | - | - |
| 1787743629 | 21.11° C | 65% | 1026.7 hPa | 0 mm | - | - | - |
| 1787743328 | 21.11° C | 63% | 1026.7 hPa | 0 mm | - | - | - |
| 1787743028 | 21.67° C | 63% | 1026.5 hPa | 0 mm | - | - | - |
| 1787742728 | 21.11° C | 63% | 1026.5 hPa | 0 mm | - | - | - |
| 1787742428 | 20.56° C | 66% | 1026.6 hPa | 0 mm | - | - | - |
| 1787742127 | 20.56° C | 67% | 1026.5 hPa | 0 mm | - | - | - |
| 1787741827 | 20.56° C | 67% | 1026.5 hPa | 0 mm | - | - | - |
| 1787741527 | 20.56° C | 66% | 1026.5 hPa | 0 mm | - | - | - |
| 1787741226 | 20.56° C | 66% | 1026.5 hPa | 0 mm | - | - | - |
| 1787740926 | 20.56° C | 66% | 1026.6 hPa | 0 mm | - | - | - |
| 1787740626 | 21.11° C | 66% | 1026.6 hPa | 0 mm | - | - | - |
| 1787740325 | 21.11° C | 67% | 1026.5 hPa | 0 mm | - | - | - |
| 1787740025 | 20.56° C | 69% | 1026.7 hPa | 0 mm | - | - | - |
| 1787739725 | 20° C | 70% | 1026.6 hPa | 0 mm | - | - | - |
| 1787739425 | 20° C | 69% | 1026.5 hPa | 0 mm | - | - | - |
| 1787739124 | 20.56° C | 68% | 1026.6 hPa | 0 mm | - | - | - |
| 1787738824 | 20.56° C | 68% | 1026.7 hPa | 0 mm | - | - | - |
* Rain latest hour (hover to see other rain measurements)
** Current wind speed in m/s (hover to see current wind gust speed)